Time;durP1;ratioP1;P1;durP2;ratioP2;P2;SDS_P1;SDS_P2;PMS_P1;PMS_P2;Temp;Humidity;BMP_temperature;BMP_pressure;BME280_temperature;BME280_humidity;BME280_pressure;Samples;Min_cycle;Max_cycle;Signal;HPM_P1;HPM_P2
2024/01/20 00:02:04;;;;;;;2.93;1.83;;;3.90;99.90;;;;;;4981915;28;20299;-67
2024/01/20 00:04:31;;;;;;;3.70;1.90;;;3.90;99.90;;;;;;4977193;28;20203;-66
2024/01/20 00:06:58;;;;;;;5.20;2.60;;;3.90;99.90;;;;;;4983294;28;20282;-66
2024/01/20 00:09:30;;;;;;;3.50;1.93;;;4.00;99.90;;;;;;4989317;28;20192;-65
2024/01/20 00:12:00;;;;;;;2.43;1.70;;;4.00;99.90;;;;;;4983258;28;20719;-66
2024/01/20 00:14:28;;;;;;;2.60;2.10;;;4.10;99.90;;;;;;4981163;28;20221;-67
2024/01/20 00:16:55;;;;;;;2.37;1.90;;;4.00;99.90;;;;;;4991131;28;20648;-67
2024/01/20 00:19:22;;;;;;;4.03;2.10;;;4.10;99.90;;;;;;4985227;28;20211;-66
2024/01/20 00:21:49;;;;;;;2.70;1.90;;;4.10;99.90;;;;;;4980962;28;20212;-67
2024/01/20 00:24:16;;;;;;;7.10;2.50;;;4.20;99.90;;;;;;4973433;28;20672;-67
2024/01/20 00:26:43;;;;;;;6.23;2.67;;;4.20;99.90;;;;;;4982415;28;20207;-67
2024/01/20 00:29:10;;;;;;;3.90;2.73;;;4.20;99.90;;;;;;4992709;28;20274;-66
2024/01/20 00:31:39;;;;;;;7.77;2.90;;;4.20;99.90;;;;;;4988115;28;20192;-68
2024/01/20 00:34:06;;;;;;;5.13;2.97;;;4.20;99.90;;;;;;4989452;28;20628;-67
2024/01/20 00:36:33;;;;;;;5.97;3.27;;;4.20;99.90;;;;;;4986980;28;20200;-66
2024/01/20 00:39:00;;;;;;;4.17;2.60;;;4.10;99.90;;;;;;4991550;28;20196;-66
2024/01/20 00:41:27;;;;;;;3.63;2.60;;;4.10;99.90;;;;;;4992121;28;20239;-66
2024/01/20 00:43:54;;;;;;;4.47;2.37;;;4.10;99.90;;;;;;4992629;28;20254;-66
2024/01/20 00:46:22;;;;;;;5.43;2.83;;;4.10;99.90;;;;;;4993413;28;20536;-66
2024/01/20 00:48:50;;;;;;;6.70;3.03;;;4.10;99.90;;;;;;4989582;28;20719;-66
2024/01/20 00:51:17;;;;;;;5.00;2.40;;;4.10;99.90;;;;;;4980641;28;20265;-65
2024/01/20 00:53:44;;;;;;;2.77;2.10;;;4.10;99.90;;;;;;4993960;28;20227;-67
2024/01/20 00:56:11;;;;;;;4.30;2.40;;;4.10;99.90;;;;;;4984794;28;20274;-67
2024/01/20 00:58:38;;;;;;;4.10;2.30;;;4.10;99.90;;;;;;4990733;28;20286;-66
2024/01/20 01:01:05;;;;;;;2.87;2.27;;;4.10;99.90;;;;;;4991133;28;20219;-66
2024/01/20 01:03:32;;;;;;;3.00;2.00;;;4.10;99.90;;;;;;4991270;28;20286;-67
2024/01/20 01:06:03;;;;;;;2.37;1.83;;;4.10;99.90;;;;;;4993449;28;20236;-67
2024/01/20 01:08:30;;;;;;;3.17;1.90;;;4.10;99.90;;;;;;4989757;28;20235;-72
2024/01/20 01:10:57;;;;;;;2.20;1.80;;;4.10;99.90;;;;;;4994028;28;20203;-68
2024/01/20 01:13:25;;;;;;;3.10;2.00;;;4.10;99.90;;;;;;4992316;28;20254;-68
2024/01/20 01:15:51;;;;;;;1.93;1.70;;;4.10;99.90;;;;;;4989401;28;20196;-67
2024/01/20 01:18:19;;;;;;;2.37;1.40;;;4.20;99.90;;;;;;4993658;28;20283;-66
2024/01/20 01:20:46;;;;;;;2.63;1.50;;;4.10;99.90;;;;;;4989603;28;20776;-68
2024/01/20 01:23:14;;;;;;;3.00;1.93;;;4.10;99.90;;;;;;4980954;28;20683;-68
2024/01/20 01:25:41;;;;;;;2.30;1.80;;;4.10;99.90;;;;;;4965660;28;20263;-67
2024/01/20 01:28:08;;;;;;;2.37;1.63;;;4.20;99.90;;;;;;4992799;28;20213;-69
2024/01/20 01:30:36;;;;;;;1.93;1.50;;;4.20;99.90;;;;;;4989749;28;20191;-67
2024/01/20 01:33:03;;;;;;;2.57;1.63;;;4.20;99.90;;;;;;4990226;28;20255;-67
2024/01/20 01:35:30;;;;;;;1.90;1.10;;;4.20;99.90;;;;;;4991359;28;20616;-66
2024/01/20 01:37:58;;;;;;;2.43;1.77;;;4.20;99.90;;;;;;4993027;28;20273;-67
2024/01/20 01:40:26;;;;;;;2.87;1.83;;;4.20;99.90;;;;;;4984117;28;20201;-67
2024/01/20 01:42:56;;;;;;;2.20;1.87;;;4.30;99.90;;;;;;4987859;28;20210;-66
2024/01/20 01:45:24;;;;;;;5.80;2.67;;;4.30;99.90;;;;;;4987148;28;20206;-67
2024/01/20 01:47:51;;;;;;;4.57;2.23;;;4.30;99.90;;;;;;4981744;28;20320;-66
2024/01/20 01:50:19;;;;;;;1.93;1.73;;;4.40;99.90;;;;;;4985170;28;20200;-68
2024/01/20 01:52:48;;;;;;;2.80;1.60;;;4.30;99.90;;;;;;4990771;28;20262;-66
2024/01/20 01:55:16;;;;;;;3.57;1.73;;;4.40;99.90;;;;;;4979272;28;20200;-66
2024/01/20 01:57:45;;;;;;;2.57;1.73;;;4.40;99.90;;;;;;4992196;28;20254;-67
2024/01/20 02:00:12;;;;;;;2.83;1.20;;;4.40;99.90;;;;;;4991197;28;20215;-67
2024/01/20 02:02:39;;;;;;;2.07;1.30;;;4.40;99.90;;;;;;4986157;28;20211;-67
2024/01/20 02:05:09;;;;;;;1.77;1.67;;;4.40;99.90;;;;;;4991624;28;20230;-67
2024/01/20 02:07:38;;;;;;;2.40;1.57;;;4.40;99.90;;;;;;4979469;28;20568;-67
2024/01/20 02:10:06;;;;;;;1.87;1.60;;;4.40;99.90;;;;;;4989645;28;20195;-67
2024/01/20 02:12:35;;;;;;;2.57;1.50;;;4.40;99.90;;;;;;4988025;28;20901;-66
2024/01/20 02:15:04;;;;;;;2.07;1.60;;;4.30;99.90;;;;;;4991637;28;20214;-66
2024/01/20 02:17:31;;;;;;;2.30;1.40;;;4.30;99.90;;;;;;4986286;28;20195;-66
2024/01/20 02:19:58;;;;;;;2.50;1.50;;;4.30;99.90;;;;;;4991980;28;20730;-65
2024/01/20 02:22:27;;;;;;;1.30;1.20;;;4.30;99.90;;;;;;4989553;28;20671;-67
2024/01/20 02:24:54;;;;;;;1.80;1.70;;;4.30;99.90;;;;;;4980718;28;20226;-66
2024/01/20 02:27:21;;;;;;;3.10;1.63;;;4.40;99.90;;;;;;4974294;28;20640;-67
2024/01/20 02:29:48;;;;;;;1.50;1.40;;;4.30;99.90;;;;;;4983242;28;20255;-67
2024/01/20 02:32:15;;;;;;;2.50;1.57;;;4.30;99.90;;;;;;4989394;28;20250;-65
2024/01/20 02:34:43;;;;;;;2.00;1.80;;;4.30;99.90;;;;;;4979155;28;20257;-67
2024/01/20 02:37:10;;;;;;;1.60;1.50;;;4.40;99.90;;;;;;4982894;28;20207;-67
2024/01/20 02:39:38;;;;;;;2.50;1.40;;;4.40;99.90;;;;;;4988824;28;20246;-66
2024/01/20 02:42:08;;;;;;;3.93;2.13;;;4.40;99.90;;;;;;4973510;28;20271;-66
2024/01/20 02:44:35;;;;;;;1.87;1.77;;;4.40;99.90;;;;;;4990992;28;20280;-66
2024/01/20 02:47:02;;;;;;;1.73;1.63;;;4.40;99.90;;;;;;4989712;28;20660;-66
2024/01/20 02:49:29;;;;;;;2.30;1.80;;;4.40;99.90;;;;;;4985510;28;20258;-65
2024/01/20 02:51:57;;;;;;;1.50;1.40;;;4.40;99.90;;;;;;4994129;28;20269;-66
2024/01/20 02:54:24;;;;;;;1.60;1.50;;;4.40;99.90;;;;;;4977780;28;20223;-65
2024/01/20 02:56:52;;;;;;;1.30;1.20;;;4.30;99.90;;;;;;4983515;28;20765;-66
2024/01/20 02:59:19;;;;;;;1.07;1.00;;;4.30;99.90;;;;;;4991344;28;20607;-66
2024/01/20 03:01:46;;;;;;;1.93;1.30;;;4.30;99.90;;;;;;4973437;28;20699;-66
2024/01/20 03:04:14;;;;;;;1.77;1.60;;;4.20;99.90;;;;;;4987584;28;20202;-68
2024/01/20 03:06:41;;;;;;;1.60;1.50;;;4.20;99.90;;;;;;4979303;28;20727;-66
2024/01/20 03:09:08;;;;;;;1.37;1.27;;;4.20;99.90;;;;;;4985018;28;20199;-66
2024/01/20 03:11:36;;;;;;;1.27;1.17;;;4.20;99.90;;;;;;4991595;28;20192;-67
2024/01/20 03:14:04;;;;;;;1.07;0.97;;;4.20;99.90;;;;;;4975445;28;20235;-65
2024/01/20 03:16:31;;;;;;;1.00;1.00;;;4.10;99.90;;;;;;4991151;28;20192;-67
2024/01/20 03:18:58;;;;;;;1.33;1.17;;;4.20;99.90;;;;;;4984323;28;20203;-67
2024/01/20 03:21:26;;;;;;;0.87;0.87;;;4.10;99.90;;;;;;4973997;28;20232;-66
2024/01/20 03:23:53;;;;;;;1.50;1.40;;;4.10;99.90;;;;;;4991483;28;20208;-66
2024/01/20 03:26:20;;;;;;;1.60;1.37;;;4.10;99.90;;;;;;4991107;28;20663;-67
2024/01/20 03:28:48;;;;;;;1.67;1.20;;;4.10;99.90;;;;;;4999829;28;20282;-67
2024/01/20 03:31:16;;;;;;;2.93;1.60;;;4.10;99.90;;;;;;4987127;28;20231;-67
2024/01/20 03:33:44;;;;;;;2.33;1.57;;;4.20;99.90;;;;;;4989614;28;20256;-67
2024/01/20 03:36:11;;;;;;;1.57;1.10;;;4.20;99.90;;;;;;4984036;28;20319;-67
2024/01/20 03:38:38;;;;;;;1.43;1.00;;;4.20;99.90;;;;;;4993163;28;20199;-67
2024/01/20 03:41:05;;;;;;;1.47;1.03;;;4.20;99.90;;;;;;4994025;28;20221;-67
2024/01/20 03:43:32;;;;;;;0.93;0.93;;;4.10;99.90;;;;;;4994418;28;20229;-67
2024/01/20 03:45:59;;;;;;;0.87;0.87;;;4.20;99.90;;;;;;4993082;28;20612;-67
2024/01/20 03:48:28;;;;;;;0.97;0.90;;;4.20;99.90;;;;;;4999144;28;20191;-66
2024/01/20 03:50:55;;;;;;;1.20;0.80;;;4.20;99.90;;;;;;4990717;28;20227;-66
2024/01/20 03:53:22;;;;;;;0.70;0.70;;;4.20;99.90;;;;;;4992912;28;20254;-66
2024/01/20 03:55:49;;;;;;;0.90;0.90;;;4.20;99.90;;;;;;4992655;28;20271;-66
2024/01/20 03:58:17;;;;;;;0.70;0.70;;;4.30;99.90;;;;;;4994715;28;20254;-66
2024/01/20 04:00:46;;;;;;;1.53;0.80;;;4.30;99.90;;;;;;4980735;28;20718;-66
2024/01/20 04:03:13;;;;;;;1.00;1.00;;;4.30;99.90;;;;;;4984162;28;20247;-68
2024/01/20 04:05:42;;;;;;;0.90;0.90;;;4.30;99.90;;;;;;4993928;28;20690;-67
2024/01/20 04:08:11;;;;;;;2.13;1.07;;;4.30;99.90;;;;;;4982776;28;20259;-67
2024/01/20 04:10:38;;;;;;;1.37;1.07;;;4.30;99.90;;;;;;4992349;28;20203;-67
2024/01/20 04:13:05;;;;;;;2.33;1.33;;;4.40;99.90;;;;;;4994266;28;20563;-66
2024/01/20 04:15:32;;;;;;;1.30;0.90;;;4.40;99.90;;;;;;4982150;28;20319;-67
2024/01/20 04:17:59;;;;;;;1.83;1.30;;;4.40;99.90;;;;;;4985368;28;20215;-67
2024/01/20 04:20:26;;;;;;;3.30;1.60;;;4.50;99.90;;;;;;4993491;28;20203;-67
2024/01/20 04:22:55;;;;;;;2.33;1.63;;;4.50;99.90;;;;;;4990102;28;20216;-68
2024/01/20 04:25:22;;;;;;;2.87;1.70;;;4.50;99.90;;;;;;4994031;28;20215;-67
2024/01/20 04:27:49;;;;;;;7.00;2.17;;;4.50;99.90;;;;;;4993980;28;20203;-68
2024/01/20 04:30:16;;;;;;;5.50;1.87;;;4.50;99.90;;;;;;4981097;28;20251;-67
2024/01/20 04:32:43;;;;;;;7.77;1.80;;;4.50;99.90;;;;;;4993854;28;20247;-67
2024/01/20 04:35:10;;;;;;;3.53;1.60;;;4.50;99.90;;;;;;4992676;28;20200;-66
2024/01/20 04:37:39;;;;;;;4.03;1.60;;;4.50;99.90;;;;;;4991541;28;20304;-67
2024/01/20 04:40:08;;;;;;;5.40;2.33;;;4.50;99.90;;;;;;4994425;28;20686;-66
2024/01/20 04:42:35;;;;;;;5.33;2.03;;;4.50;99.90;;;;;;4983249;28;20216;-66
2024/01/20 04:45:04;;;;;;;6.43;1.93;;;4.50;99.90;;;;;;4994051;28;20283;-67
2024/01/20 04:47:32;;;;;;;9.20;2.33;;;4.50;99.90;;;;;;4971944;28;20206;-67
2024/01/20 04:49:59;;;;;;;6.90;1.70;;;4.50;99.90;;;;;;4988027;28;20227;-66
2024/01/20 04:52:26;;;;;;;5.33;2.10;;;4.50;99.90;;;;;;4989234;28;20259;-67
2024/01/20 04:54:53;;;;;;;3.23;1.87;;;4.50;99.90;;;;;;4991339;28;20204;-66
2024/01/20 04:57:22;;;;;;;7.10;2.20;;;4.50;99.90;;;;;;4992293;28;20228;-67
2024/01/20 04:59:49;;;;;;;7.23;2.03;;;4.50;99.90;;;;;;4991094;28;20314;-67
2024/01/20 05:02:16;;;;;;;6.43;2.20;;;4.50;99.90;;;;;;4986592;28;20274;-66
2024/01/20 05:04:44;;;;;;;4.50;1.80;;;4.40;99.90;;;;;;4985240;28;20244;-67
2024/01/20 05:07:11;;;;;;;8.33;2.00;;;4.50;99.90;;;;;;4980968;28;20200;-67
2024/01/20 05:09:39;;;;;;;9.53;2.20;;;4.50;99.90;;;;;;4979552;28;20662;-67
2024/01/20 05:12:06;;;;;;;7.67;2.47;;;4.50;99.90;;;;;;4992799;28;20671;-67
2024/01/20 05:14:35;;;;;;;4.57;1.97;;;4.50;99.90;;;;;;4992981;28;20250;-67
2024/01/20 05:17:03;;;;;;;3.60;1.43;;;4.50;99.90;;;;;;4983844;28;20236;-67
2024/01/20 05:19:30;;;;;;;4.00;1.90;;;4.50;99.90;;;;;;4983543;28;20284;-67
2024/01/20 05:21:57;;;;;;;2.77;1.80;;;4.50;99.90;;;;;;4991390;28;20212;-67
2024/01/20 05:24:24;;;;;;;4.70;1.90;;;4.50;99.90;;;;;;4993199;28;20204;-67
2024/01/20 05:26:51;;;;;;;5.53;1.90;;;4.50;99.90;;;;;;4991856;28;20211;-67
2024/01/20 05:29:18;;;;;;;6.30;2.10;;;4.50;99.90;;;;;;4993171;28;20267;-67
2024/01/20 05:31:47;;;;;;;3.63;1.70;;;4.40;99.90;;;;;;4989367;28;20231;-66
2024/01/20 05:34:14;;;;;;;2.83;1.80;;;4.40;99.90;;;;;;4988178;28;20282;-66
2024/01/20 05:36:41;;;;;;;5.63;2.13;;;4.50;99.90;;;;;;4990352;28;20208;-67
2024/01/20 05:39:08;;;;;;;3.03;1.87;;;4.50;99.90;;;;;;4982201;28;20196;-67
2024/01/20 05:41:35;;;;;;;6.93;1.97;;;4.50;99.90;;;;;;4993411;28;20205;-68
2024/01/20 05:44:03;;;;;;;1.90;1.63;;;4.50;99.90;;;;;;4992749;28;20306;-67
2024/01/20 05:46:30;;;;;;;4.93;2.00;;;4.40;99.90;;;;;;4980785;28;20195;-67
2024/01/20 05:49:02;;;;;;;2.43;1.83;;;4.40;99.90;;;;;;4989311;28;20200;-67
2024/01/20 05:51:29;;;;;;;4.20;2.03;;;4.40;99.90;;;;;;4988416;28;20219;-66
2024/01/20 05:53:56;;;;;;;5.53;2.13;;;4.40;99.90;;;;;;4984690;28;20196;-66
2024/01/20 05:56:23;;;;;;;3.03;1.80;;;4.40;99.90;;;;;;4987997;28;20210;-67
2024/01/20 05:58:50;;;;;;;4.13;1.53;;;4.40;99.90;;;;;;4988629;28;20208;-67
2024/01/20 06:01:18;;;;;;;3.57;1.90;;;4.50;99.90;;;;;;4966003;28;20619;-67
2024/01/20 06:03:45;;;;;;;3.70;2.00;;;4.50;99.90;;;;;;4992088;28;20559;-67
2024/01/20 06:06:13;;;;;;;3.20;1.80;;;4.40;99.90;;;;;;4986617;28;20558;-67
2024/01/20 06:08:40;;;;;;;3.67;2.00;;;4.40;99.90;;;;;;4974446;28;20214;-67
2024/01/20 06:11:09;;;;;;;3.23;1.77;;;4.50;99.90;;;;;;4988970;28;20266;-67
2024/01/20 06:13:37;;;;;;;2.97;1.87;;;4.50;99.90;;;;;;4985882;28;20741;-67
2024/01/20 06:16:04;;;;;;;4.47;1.83;;;4.50;99.90;;;;;;4987991;28;20642;-68
2024/01/20 06:18:31;;;;;;;6.40;1.77;;;4.50;99.90;;;;;;4979744;28;20210;-67
2024/01/20 06:20:59;;;;;;;3.53;1.70;;;4.50;99.90;;;;;;4970687;28;20204;-67
2024/01/20 06:23:28;;;;;;;3.37;1.50;;;4.50;99.90;;;;;;4979929;28;20254;-67
2024/01/20 06:25:55;;;;;;;2.90;1.60;;;4.50;99.90;;;;;;4991839;28;20599;-67
2024/01/20 06:28:23;;;;;;;3.43;1.90;;;4.50;99.90;;;;;;4975323;28;20196;-68
2024/01/20 06:30:50;;;;;;;2.70;1.90;;;4.50;99.90;;;;;;4992071;28;20200;-67
2024/01/20 06:33:17;;;;;;;3.53;1.70;;;4.50;99.90;;;;;;4990232;28;20336;-67
2024/01/20 06:35:45;;;;;;;3.67;1.97;;;4.50;99.90;;;;;;4991352;28;20446;-67
2024/01/20 06:38:12;;;;;;;5.07;1.93;;;4.50;99.90;;;;;;4993525;28;20192;-66
2024/01/20 06:40:40;;;;;;;4.90;1.93;;;4.50;99.90;;;;;;4974515;28;20207;-66
2024/01/20 06:43:10;;;;;;;7.20;2.60;;;4.50;99.90;;;;;;4985310;28;20227;-66
2024/01/20 06:45:37;;;;;;;5.83;2.30;;;4.60;99.90;;;;;;4989087;28;20306;-66
2024/01/20 06:48:05;;;;;;;5.47;2.20;;;4.60;99.90;;;;;;4991221;28;20200;-66
2024/01/20 06:50:32;;;;;;;6.27;2.17;;;4.60;99.90;;;;;;4984613;28;20204;-66
2024/01/20 06:52:59;;;;;;;5.50;2.17;;;4.60;99.90;;;;;;5013278;28;20244;-66
2024/01/20 06:55:26;;;;;;;4.20;1.93;;;4.60;99.90;;;;;;5010721;28;20188;-66
2024/01/20 06:57:55;;;;;;;4.87;2.10;;;4.60;99.90;;;;;;4992092;28;20199;-67
2024/01/20 07:00:23;;;;;;;5.17;2.13;;;4.60;99.90;;;;;;4990149;28;20199;-69
2024/01/20 07:02:50;;;;;;;8.23;2.37;;;4.60;99.90;;;;;;4988585;28;20221;-67
2024/01/20 07:05:17;;;;;;;6.93;2.40;;;4.50;99.90;;;;;;4984566;28;20235;-68
2024/01/20 07:07:44;;;;;;;7.33;2.60;;;4.50;99.90;;;;;;4984614;28;20195;-68
2024/01/20 07:10:12;;;;;;;4.90;2.30;;;4.50;99.90;;;;;;4987833;28;20228;-68
2024/01/20 07:12:40;;;;;;;4.70;2.37;;;4.50;99.90;;;;;;4990386;28;20193;-67
2024/01/20 07:15:09;;;;;;;2.80;1.53;;;4.50;99.90;;;;;;4987553;28;20760;-66
2024/01/20 07:17:37;;;;;;;2.93;2.10;;;4.50;99.90;;;;;;4980681;28;20196;-66
2024/01/20 07:20:04;;;;;;;5.97;2.07;;;4.50;99.90;;;;;;4984133;28;20294;-67
2024/01/20 07:22:32;;;;;;;4.40;2.03;;;4.60;99.90;;;;;;4977294;28;20254;-66
2024/01/20 07:24:59;;;;;;;4.20;2.10;;;4.60;99.90;;;;;;4991389;28;20215;-68
2024/01/20 07:27:26;;;;;;;4.93;2.00;;;4.60;99.90;;;;;;4991600;28;20647;-69
2024/01/20 07:29:53;;;;;;;2.70;1.80;;;4.60;99.90;;;;;;4984342;28;20224;-68
2024/01/20 07:32:22;;;;;;;3.97;1.80;;;4.60;99.90;;;;;;4988590;28;20718;-67
2024/01/20 07:34:49;;;;;;;4.63;1.87;;;4.60;99.90;;;;;;4983744;28;20292;-68
2024/01/20 07:37:16;;;;;;;3.73;1.70;;;4.70;99.90;;;;;;4988229;28;20234;-68
2024/01/20 07:39:43;;;;;;;3.40;1.70;;;4.70;99.90;;;;;;4990575;28;20280;-68
2024/01/20 07:42:10;;;;;;;5.07;2.10;;;4.70;99.90;;;;;;4987388;28;20192;-68
2024/01/20 07:44:37;;;;;;;2.73;1.50;;;4.70;99.90;;;;;;4974074;28;20220;-67
2024/01/20 07:47:04;;;;;;;6.87;2.00;;;4.70;99.90;;;;;;4988439;28;20529;-67
2024/01/20 07:49:33;;;;;;;4.60;1.93;;;4.70;99.90;;;;;;4984153;28;20287;-67
2024/01/20 07:52:00;;;;;;;3.53;2.37;;;4.70;99.90;;;;;;4987398;28;20246;-68
2024/01/20 07:54:27;;;;;;;5.23;2.30;;;4.70;99.90;;;;;;4978439;28;20192;-66
2024/01/20 07:56:54;;;;;;;3.60;1.80;;;4.70;99.90;;;;;;4979987;28;20243;-67
2024/01/20 07:59:21;;;;;;;4.70;1.87;;;4.70;99.90;;;;;;4986364;28;20281;-67
2024/01/20 08:01:48;;;;;;;5.77;2.50;;;4.70;99.90;;;;;;4989517;28;20202;-67
2024/01/20 08:04:17;;;;;;;4.43;2.43;;;4.70;99.90;;;;;;4977109;28;20230;-68
2024/01/20 08:06:45;;;;;;;8.00;2.00;;;4.70;99.90;;;;;;4985331;28;20254;-67
2024/01/20 08:09:13;;;;;;;2.60;2.10;;;4.70;99.90;;;;;;4987546;28;20567;-67
2024/01/20 08:11:40;;;;;;;3.23;2.03;;;4.70;99.90;;;;;;4991225;28;20604;-66
2024/01/20 08:14:07;;;;;;;4.37;2.50;;;4.70;99.90;;;;;;4986323;28;20545;-66
2024/01/20 08:16:35;;;;;;;3.67;2.30;;;4.70;99.90;;;;;;4985053;28;20214;-66
2024/01/20 08:19:02;;;;;;;4.37;2.17;;;4.70;99.90;;;;;;4989246;28;20275;-67
2024/01/20 08:21:29;;;;;;;3.20;2.40;;;4.70;99.90;;;;;;4989035;28;20208;-66
2024/01/20 08:23:57;;;;;;;3.10;1.80;;;4.70;99.90;;;;;;4990141;28;20216;-66
2024/01/20 08:26:25;;;;;;;3.57;1.90;;;4.60;99.90;;;;;;4993035;28;20192;-67
2024/01/20 08:28:52;;;;;;;2.80;1.80;;;4.60;99.90;;;;;;4990023;28;20226;-66
2024/01/20 08:31:19;;;;;;;2.47;1.50;;;4.60;99.90;;;;;;4982873;28;20403;-66
2024/01/20 08:33:46;;;;;;;3.37;1.73;;;4.60;99.90;;;;;;4976251;28;20659;-67
2024/01/20 08:36:13;;;;;;;2.33;1.50;;;4.70;99.90;;;;;;4993746;28;20315;-68
2024/01/20 08:38:40;;;;;;;3.07;1.67;;;4.70;99.90;;;;;;4972735;28;20197;-67
2024/01/20 08:41:10;;;;;;;2.60;1.60;;;4.80;99.90;;;;;;4975164;28;20298;-67
2024/01/20 08:43:39;;;;;;;1.80;1.53;;;4.80;99.90;;;;;;4985779;28;20235;-68
2024/01/20 08:46:06;;;;;;;2.00;1.57;;;4.80;99.90;;;;;;4982301;28;20557;-67
2024/01/20 08:48:33;;;;;;;1.47;1.37;;;4.80;99.90;;;;;;4993412;28;20551;-67
2024/01/20 08:51:01;;;;;;;1.90;1.60;;;4.80;99.90;;;;;;4987427;28;20211;-67
2024/01/20 08:53:28;;;;;;;2.20;1.57;;;4.80;99.90;;;;;;4977927;28;20228;-66
2024/01/20 08:55:55;;;;;;;1.73;1.63;;;4.80;99.90;;;;;;4993855;28;20199;-66
2024/01/20 08:58:23;;;;;;;1.83;1.73;;;4.80;99.90;;;;;;4973113;28;20215;-66
2024/01/20 09:00:51;;;;;;;2.17;1.63;;;4.80;99.90;;;;;;4978060;28;20201;-66
2024/01/20 09:03:18;;;;;;;2.80;1.70;;;4.70;99.90;;;;;;4988500;28;20212;-66
2024/01/20 09:05:45;;;;;;;5.80;1.70;;;4.70;99.90;;;;;;4986552;28;20308;-66
2024/01/20 09:08:12;;;;;;;2.13;1.40;;;4.80;99.90;;;;;;4984135;28;20197;-66
2024/01/20 09:10:40;;;;;;;3.13;1.70;;;4.80;99.90;;;;;;4993422;28;20196;-66
2024/01/20 09:13:08;;;;;;;2.33;1.60;;;4.80;99.90;;;;;;4971043;28;20204;-65
2024/01/20 09:15:36;;;;;;;3.87;1.60;;;4.70;99.90;;;;;;4992467;28;20188;-67
2024/01/20 09:18:04;;;;;;;3.47;1.73;;;4.70;99.90;;;;;;4972965;28;20251;-66
2024/01/20 09:20:31;;;;;;;3.60;1.40;;;4.70;99.90;;;;;;4982830;28;20203;-67
2024/01/20 09:22:58;;;;;;;1.73;1.40;;;4.70;99.90;;;;;;4984361;28;20210;-66
2024/01/20 09:25:25;;;;;;;2.00;1.70;;;4.70;99.90;;;;;;4974013;28;20286;-67
2024/01/20 09:27:53;;;;;;;2.00;1.67;;;4.70;99.90;;;;;;4980178;28;20235;-67
2024/01/20 09:30:21;;;;;;;2.87;1.70;;;4.80;99.90;;;;;;4992704;28;20207;-67
2024/01/20 09:32:50;;;;;;;2.77;1.97;;;4.80;99.90;;;;;;4973143;28;20247;-69
2024/01/20 09:35:19;;;;;;;2.33;1.70;;;4.80;99.90;;;;;;4988568;28;20268;-69
2024/01/20 09:37:46;;;;;;;3.67;2.07;;;4.80;99.90;;;;;;4980382;28;20619;-68
2024/01/20 09:40:15;;;;;;;1.93;1.70;;;4.80;99.90;;;;;;4987414;28;20302;-68
2024/01/20 09:42:43;;;;;;;3.70;2.03;;;4.80;99.90;;;;;;4989510;28;20210;-69
2024/01/20 09:45:11;;;;;;;2.17;1.97;;;4.70;99.90;;;;;;4975630;28;20220;-71
2024/01/20 09:47:38;;;;;;;3.53;1.80;;;4.70;99.90;;;;;;4992281;28;20764;-68
2024/01/20 09:50:08;;;;;;;2.43;1.73;;;4.60;99.90;;;;;;4964367;28;20242;-67
2024/01/20 09:52:42;;;;;;;1.97;1.70;;;4.60;99.90;;;;;;4992076;28;20254;-68
2024/01/20 09:55:19;;;;;;;2.53;1.70;;;4.60;99.90;;;;;;4984897;28;20208;-68
2024/01/20 09:57:46;;;;;;;1.90;1.70;;;4.60;99.90;;;;;;4983899;28;20199;-67
2024/01/20 10:00:16;;;;;;;3.20;1.87;;;4.60;99.90;;;;;;4992809;28;20196;-67
2024/01/20 10:02:45;;;;;;;3.30;2.13;;;4.60;99.90;;;;;;4990710;28;20207;-69
2024/01/20 10:05:15;;;;;;;2.20;1.73;;;4.60;99.90;;;;;;4988793;28;20271;-69
2024/01/20 10:07:42;;;;;;;3.20;2.07;;;4.70;99.90;;;;;;4987054;28;20199;-67
2024/01/20 10:10:18;;;;;;;2.27;2.07;;;4.70;99.90;;;;;;4972965;28;20211;-68
2024/01/20 10:12:48;;;;;;;3.30;1.90;;;4.70;99.90;;;;;;4987133;28;20195;-68
2024/01/20 10:15:16;;;;;;;3.63;1.50;;;4.70;99.90;;;;;;4979786;28;20195;-68
2024/01/20 10:17:43;;;;;;;3.77;2.17;;;4.70;99.90;;;;;;4985384;28;20207;-67
2024/01/20 10:20:21;;;;;;;4.17;2.10;;;4.70;99.90;;;;;;4980336;28;20278;-67
2024/01/20 10:22:48;;;;;;;4.23;2.10;;;4.70;99.90;;;;;;4988103;28;20544;-69
2024/01/20 10:25:19;;;;;;;2.70;1.97;;;4.80;99.90;;;;;;4982939;28;20721;-68
2024/01/20 10:27:47;;;;;;;2.13;1.97;;;4.80;99.90;;;;;;4990162;28;20200;-69
2024/01/20 10:30:15;;;;;;;4.43;2.17;;;4.80;99.90;;;;;;4987782;28;20292;-68
2024/01/20 10:32:42;;;;;;;2.27;2.07;;;4.80;99.90;;;;;;4974289;28;20631;-69
2024/01/20 10:35:10;;;;;;;3.17;2.00;;;4.80;99.90;;;;;;4969445;28;20194;-71
2024/01/20 10:37:42;;;;;;;3.97;2.10;;;4.80;99.90;;;;;;4991350;28;20203;-69
2024/01/20 10:40:12;;;;;;;2.93;2.00;;;4.80;99.90;;;;;;4979206;28;20213;-71
2024/01/20 10:42:45;;;;;;;2.43;1.93;;;4.80;99.90;;;;;;4986902;28;20255;-72
2024/01/20 10:45:17;;;;;;;4.70;2.00;;;4.80;99.90;;;;;;4983822;28;20593;-71
2024/01/20 10:47:56;;;;;;;2.10;1.70;;;4.80;99.90;;;;;;4985560;28;20200;-71
2024/01/20 10:50:25;;;;;;;2.10;1.90;;;4.80;99.90;;;;;;4978759;28;20287;-69
2024/01/20 10:52:54;;;;;;;2.10;1.90;;;4.80;99.90;;;;;;4986582;28;20199;-70
2024/01/20 10:55:21;;;;;;;2.63;2.13;;;4.80;99.90;;;;;;4981741;28;20201;-69
2024/01/20 10:57:49;;;;;;;3.70;2.13;;;4.80;99.90;;;;;;4971182;28;20216;-69
2024/01/20 11:00:18;;;;;;;3.70;2.20;;;4.90;99.90;;;;;;4990219;28;20564;-69
2024/01/20 11:02:46;;;;;;;2.23;1.97;;;4.90;99.90;;;;;;4984543;28;20200;-70
2024/01/20 11:05:21;;;;;;;2.77;2.03;;;4.80;99.90;;;;;;4986304;28;20323;-69
2024/01/20 11:08:05;;;;;;;2.70;2.03;;;4.80;99.90;;;;;;4968445;28;20616;-68
2024/01/20 11:10:39;;;;;;;2.27;1.87;;;4.80;99.90;;;;;;4985921;28;20189;-68
2024/01/20 11:13:10;;;;;;;4.63;2.10;;;4.80;99.90;;;;;;4990607;28;20223;-67
2024/01/20 11:15:39;;;;;;;2.90;1.90;;;4.80;99.90;;;;;;4971844;28;20291;-67
2024/01/20 11:18:16;;;;;;;2.43;2.00;;;4.80;99.90;;;;;;4976588;28;20199;-66
2024/01/20 11:20:54;;;;;;;3.57;2.00;;;4.80;99.90;;;;;;4982839;28;20283;-67
2024/01/20 11:23:24;;;;;;;3.87;2.17;;;4.80;99.90;;;;;;4988305;28;20196;-66
2024/01/20 11:25:51;;;;;;;2.17;1.60;;;4.90;99.90;;;;;;4979434;28;20220;-67
2024/01/20 11:28:26;;;;;;;3.07;2.17;;;4.80;99.90;;;;;;4990588;28;20199;-67
2024/01/20 11:30:53;;;;;;;2.07;1.87;;;4.90;99.90;;;;;;4986172;28;20200;-69
2024/01/20 11:33:20;;;;;;;4.43;2.20;;;4.90;99.90;;;;;;4979932;28;20221;-68
2024/01/20 11:35:48;;;;;;;2.97;1.77;;;4.90;99.90;;;;;;4986916;28;20204;-68
2024/01/20 11:38:16;;;;;;;2.73;1.77;;;4.90;99.90;;;;;;4986036;28;20211;-68
2024/01/20 11:40:44;;;;;;;1.97;1.70;;;4.90;99.90;;;;;;4983575;28;20199;-67
2024/01/20 11:43:12;;;;;;;2.13;1.63;;;4.90;99.90;;;;;;4987890;28;20203;-68
2024/01/20 11:45:39;;;;;;;2.27;1.80;;;4.80;99.90;;;;;;4985540;28;20215;-68
2024/01/20 11:48:07;;;;;;;1.50;1.40;;;4.80;99.90;;;;;;4983245;28;20234;-67
2024/01/20 11:50:34;;;;;;;1.93;1.50;;;4.80;99.90;;;;;;4985030;28;20230;-66
2024/01/20 11:53:01;;;;;;;3.00;1.50;;;4.90;99.90;;;;;;4994333;28;20196;-65
2024/01/20 11:55:29;;;;;;;2.07;1.27;;;4.90;99.90;;;;;;5001723;28;20588;-66
2024/01/20 11:57:57;;;;;;;1.73;1.57;;;4.90;99.90;;;;;;5003855;28;20287;-66
2024/01/20 12:00:24;;;;;;;1.83;1.60;;;4.90;99.90;;;;;;4993975;28;20250;-67
2024/01/20 12:02:53;;;;;;;1.00;1.00;;;4.90;99.90;;;;;;4993837;28;20203;-68
2024/01/20 12:05:21;;;;;;;1.67;1.43;;;5.00;99.90;;;;;;4994299;28;20302;-67
2024/01/20 12:07:49;;;;;;;5.13;1.53;;;5.00;99.90;;;;;;4984879;28;20759;-66
2024/01/20 12:10:17;;;;;;;2.20;1.63;;;5.10;99.90;;;;;;4991694;28;20630;-67
2024/01/20 12:12:44;;;;;;;1.37;1.27;;;5.10;99.90;;;;;;4985354;28;20284;-67
2024/01/20 12:15:15;;;;;;;1.30;1.20;;;5.10;99.90;;;;;;5000302;28;20200;-68
2024/01/20 12:17:42;;;;;;;2.17;1.40;;;5.10;99.90;;;;;;4989180;28;20781;-68
2024/01/20 12:20:11;;;;;;;1.97;1.43;;;5.10;99.90;;;;;;4991442;28;20246;-67
2024/01/20 12:22:38;;;;;;;1.20;1.10;;;5.30;99.90;;;;;;4976903;28;20209;-68
2024/01/20 12:25:07;;;;;;;2.53;1.30;;;5.70;99.90;;;;;;4972564;28;20633;-67
2024/01/20 12:27:34;;;;;;;2.13;1.93;;;5.20;99.90;;;;;;4984804;28;20194;-67
2024/01/20 12:30:03;;;;;;;2.87;1.60;;;5.20;99.90;;;;;;4989444;28;20231;-68
2024/01/20 12:32:31;;;;;;;1.43;1.33;;;5.30;99.90;;;;;;4991139;28;20193;-67
2024/01/20 12:34:58;;;;;;;3.53;1.50;;;5.20;99.90;;;;;;4990958;28;20587;-66
2024/01/20 12:37:26;;;;;;;2.03;1.07;;;5.20;99.90;;;;;;4980720;28;20282;-66
2024/01/20 12:39:53;;;;;;;0.93;0.77;;;5.10;99.90;;;;;;4977848;28;20259;-66
2024/01/20 12:42:20;;;;;;;1.10;0.93;;;5.00;99.90;;;;;;4981272;28;20217;-65
2024/01/20 12:44:47;;;;;;;1.17;1.07;;;5.00;99.90;;;;;;4972249;28;20777;-66
2024/01/20 12:47:14;;;;;;;1.00;0.90;;;5.00;99.90;;;;;;4993404;28;20196;-66
2024/01/20 12:49:42;;;;;;;1.20;0.90;;;5.00;99.90;;;;;;4984773;28;20577;-65
2024/01/20 12:52:09;;;;;;;1.13;1.00;;;5.00;99.90;;;;;;4992451;28;20275;-65
2024/01/20 12:54:37;;;;;;;0.93;0.93;;;5.00;99.90;;;;;;4986997;28;20602;-66
2024/01/20 12:57:04;;;;;;;1.27;1.17;;;5.00;99.90;;;;;;4993846;28;20197;-67
2024/01/20 12:59:32;;;;;;;1.63;0.97;;;5.10;99.90;;;;;;4983529;28;20203;-66
2024/01/20 13:01:59;;;;;;;1.10;1.00;;;5.10;99.90;;;;;;4989689;28;20202;-66